createdAt,value
2023-03-19T00:21:48.388Z,0
2023-03-19T00:27:17.152Z,0
2023-03-19T00:38:04.952Z,0
2023-03-19T00:43:27.680Z,0
2023-03-19T00:48:49.986Z,0
2023-03-19T00:54:12.248Z,0
2023-03-19T00:59:34.877Z,0
2023-03-19T01:04:57.476Z,0
2023-03-19T01:10:19.937Z,0
2023-03-19T01:15:42.433Z,0
2023-03-19T01:21:04.825Z,0
2023-03-19T01:26:27.451Z,0
2023-03-19T01:31:49.942Z,0
2023-03-19T01:37:14.977Z,0
2023-03-19T01:42:37.590Z,0
2023-03-19T01:48:00.030Z,0
2023-03-19T01:58:55.671Z,0
2023-03-19T02:04:18.398Z,0
2023-03-19T02:09:40.789Z,0
2023-03-19T02:15:03.068Z,0
2023-03-19T02:20:34.819Z,0
2023-03-19T02:25:57.433Z,0
2023-03-19T02:31:20.062Z,0
2023-03-19T02:36:42.859Z,0
2023-03-19T02:42:05.156Z,0
2023-03-19T02:47:50.665Z,0
2023-03-19T02:53:13.477Z,0
2023-03-19T02:58:35.726Z,0
2023-03-19T03:04:00.885Z,0
2023-03-19T03:09:23.504Z,0
2023-03-19T03:15:09.749Z,0
2023-03-19T03:20:33.158Z,0
2023-03-19T03:25:55.892Z,0
2023-03-19T03:31:18.516Z,0
2023-03-19T03:36:41.104Z,0
2023-03-19T03:42:03.479Z,0
2023-03-19T03:47:25.920Z,0
2023-03-19T03:52:48.287Z,0
2023-03-19T03:58:10.890Z,0
2023-03-19T04:03:33.764Z,0
2023-03-19T04:14:24.588Z,0
2023-03-19T04:19:47.330Z,0
2023-03-19T04:25:10.032Z,0
2023-03-19T04:30:36.440Z,0
2023-03-19T04:35:59.433Z,0
2023-03-19T04:41:22.128Z,0
2023-03-19T04:46:44.522Z,0
2023-03-19T04:52:30.785Z,0
2023-03-19T04:57:53.330Z,0
2023-03-19T05:03:18.643Z,0
2023-03-19T05:08:50.185Z,0
2023-03-19T05:14:12.859Z,0
2023-03-19T05:19:35.549Z,0
2023-03-19T05:25:01.518Z,0
2023-03-19T05:30:24.321Z,0
2023-03-19T05:35:47.486Z,1
2023-03-19T05:41:30.933Z,2
2023-03-19T05:46:53.499Z,10
2023-03-19T05:52:16.010Z,20
2023-03-19T05:57:38.242Z,21
2023-03-19T06:03:00.980Z,24.1
2023-03-19T06:08:24.106Z,24.2
2023-03-19T06:13:46.857Z,36
2023-03-19T06:19:09.260Z,38.7
2023-03-19T06:24:32.104Z,41.1
2023-03-19T06:29:54.534Z,88.5
2023-03-19T06:35:17.250Z,118.1
2023-03-19T06:40:40.096Z,114.5
2023-03-19T06:46:14.956Z,107.3
2023-03-19T06:51:37.608Z,100.6
2023-03-19T07:02:28.313Z,88.6
2023-03-19T07:07:50.720Z,97.3
2023-03-19T07:13:13.016Z,110.8
2023-03-19T07:18:35.608Z,199.1
2023-03-19T07:23:58.415Z,307.3
2023-03-19T07:29:20.855Z,279.5
2023-03-19T07:34:43.504Z,259.3
2023-03-19T07:40:05.823Z,297.8
2023-03-19T07:45:28.549Z,332.8
2023-03-19T07:50:51.058Z,368.9
2023-03-19T07:56:14.268Z,414
2023-03-19T08:02:14.340Z,577.1
2023-03-19T08:07:37.934Z,562.1
2023-03-19T08:13:00.901Z,868.2
2023-03-19T08:18:23.997Z,1070.3
2023-03-19T08:23:57.304Z,848.9
2023-03-19T08:29:19.698Z,857.9
2023-03-19T08:34:42.205Z,749.7
2023-03-19T08:40:04.356Z,628.5
2023-03-19T08:45:26.845Z,599.5
2023-03-19T08:50:49.628Z,849.4
2023-03-19T08:56:12.166Z,487.5
2023-03-19T09:01:44.856Z,328.8
2023-03-19T09:07:07.435Z,1364.7
2023-03-19T09:12:31.501Z,2094.6
2023-03-19T09:17:55.041Z,2529.1
2023-03-19T09:23:21.495Z,1054.2
2023-03-19T09:28:44.278Z,854.8
2023-03-19T09:34:05.373Z,727
2023-03-19T09:39:27.554Z,621.2
2023-03-19T09:45:01.852Z,482.4
2023-03-19T09:50:24.348Z,554.8
2023-03-19T09:55:46.831Z,610.7
2023-03-19T10:01:09.328Z,579.2
2023-03-19T10:12:38.682Z,1018.5
2023-03-19T10:18:05.051Z,1404.1
2023-03-19T10:23:28.305Z,881.9
2023-03-19T10:28:49.874Z,616.1
2023-03-19T10:34:12.062Z,558.6
2023-03-19T10:39:36.785Z,768.4
2023-03-19T10:45:00.273Z,1234.5
2023-03-19T10:50:33.106Z,1235.1
2023-03-19T10:55:56.118Z,1181
2023-03-19T11:01:19.741Z,1322.6
2023-03-19T11:06:42.574Z,2091.9
2023-03-19T11:12:13.382Z,1804.3
2023-03-19T11:17:36.436Z,2705.3
2023-03-19T11:23:12.725Z,1444.9
2023-03-19T11:28:34.788Z,3206.6
2023-03-19T11:33:59.418Z,4312.3
2023-03-19T11:39:23.649Z,0
2023-03-19T11:44:45.489Z,0
2023-03-19T11:50:10.449Z,0
2023-03-19T11:55:34.051Z,0
2023-03-19T12:00:55.729Z,0
2023-03-19T12:06:18.607Z,0
2023-03-19T12:11:43.441Z,0
2023-03-19T12:17:07.928Z,0
2023-03-19T12:22:37.136Z,0
2023-03-19T12:28:00.598Z,0
2023-03-19T12:33:23.152Z,0
2023-03-19T12:38:46.710Z,0
2023-03-19T12:44:10.931Z,0
2023-03-19T12:49:32.272Z,0
2023-03-19T12:55:02.479Z,0
2023-03-19T13:00:24.712Z,0
2023-03-19T13:05:46.641Z,0
2023-03-19T13:11:09.204Z,0
2023-03-19T13:16:32.401Z,0
2023-03-19T13:21:55.513Z,0
2023-03-19T13:27:18.192Z,0
2023-03-19T13:32:50.415Z,0
2023-03-19T13:38:12.584Z,0
2023-03-19T13:43:35.103Z,0
2023-03-19T13:49:21.670Z,0
2023-03-19T13:54:46.065Z,0
2023-03-19T14:00:12.010Z,0
2023-03-19T14:05:34.587Z,0
2023-03-19T14:10:56.872Z,0
2023-03-19T14:16:20.940Z,0
2023-03-19T14:21:47.700Z,0
2023-03-19T14:27:25.362Z,0
2023-03-19T14:32:48.212Z,0
2023-03-19T14:43:35.666Z,0
2023-03-19T14:48:58.195Z,0
2023-03-19T14:54:21.885Z,0
2023-03-19T15:00:01.701Z,4254
2023-03-19T15:05:24.473Z,147.9
2023-03-19T15:10:49.301Z,197.5
2023-03-19T15:16:11.854Z,245.3
2023-03-19T15:21:34.595Z,337.5
2023-03-19T15:26:57.380Z,435.8
2023-03-19T15:32:20.623Z,418.6
2023-03-19T15:37:43.482Z,369
2023-03-19T15:43:05.914Z,431.7
2023-03-19T15:48:31.177Z,429.7
2023-03-19T15:53:54.110Z,326.8
2023-03-19T15:59:16.494Z,251.9
2023-03-19T16:05:23.303Z,267.3
2023-03-19T16:10:46.127Z,232.6
2023-03-19T16:16:09.040Z,192.2
2023-03-19T16:21:33.811Z,204.4
2023-03-19T16:26:56.781Z,190.2
2023-03-19T16:32:25.278Z,132.7
2023-03-19T16:37:47.823Z,109.5
2023-03-19T16:43:10.144Z,87.5
2023-03-19T16:48:32.804Z,98
2023-03-19T16:53:55.168Z,73.3
2023-03-19T16:59:18.132Z,64.6
2023-03-19T17:04:41.023Z,54.5
2023-03-19T17:15:27.061Z,55.3
2023-03-19T17:20:49.924Z,48.2
2023-03-19T17:26:23.638Z,37.5
2023-03-19T17:31:46.501Z,31.2
2023-03-19T17:37:21.452Z,28.1
2023-03-19T17:42:44.197Z,20
2023-03-19T17:48:06.733Z,12
2023-03-19T17:53:29.402Z,4
2023-03-19T17:58:54.354Z,0
2023-03-19T18:04:26.514Z,0
2023-03-19T18:09:49.423Z,0
2023-03-19T18:15:14.901Z,0
2023-03-19T18:20:38.047Z,0
2023-03-19T18:26:00.509Z,0
2023-03-19T18:31:23.461Z,0
2023-03-19T18:36:46.533Z,0
2023-03-19T18:42:11.387Z,0
2023-03-19T18:47:41.518Z,0
2023-03-19T18:53:04.029Z,0
2023-03-19T18:58:26.446Z,0
2023-03-19T19:03:53.362Z,0
2023-03-19T19:09:18.059Z,0
2023-03-19T19:14:40.514Z,0
2023-03-19T19:20:02.940Z,0
2023-03-19T19:25:25.569Z,0
2023-03-19T19:30:56.458Z,0
2023-03-19T19:36:19.378Z,0
2023-03-19T19:41:42.100Z,0
2023-03-19T19:47:13.318Z,0
2023-03-19T19:52:35.805Z,0
2023-03-19T19:57:58.330Z,0
2023-03-19T20:03:31.770Z,0
2023-03-19T20:08:54.588Z,0
2023-03-19T20:14:20.380Z,0
2023-03-19T20:19:42.891Z,0
2023-03-19T20:30:52.970Z,0
2023-03-19T20:36:27.139Z,0
2023-03-19T20:41:49.971Z,0
2023-03-19T20:47:12.996Z,0
2023-03-19T20:52:35.561Z,0
2023-03-19T20:57:58.143Z,0
2023-03-19T21:03:21.078Z,0
2023-03-19T21:08:45.275Z,0
2023-03-19T21:14:07.595Z,0
2023-03-19T21:19:47.520Z,0
2023-03-19T21:25:10.086Z,0
2023-03-19T21:30:32.514Z,0
2023-03-19T21:35:55.276Z,0
2023-03-19T21:41:18.110Z,0
2023-03-19T21:46:40.707Z,0
2023-03-19T21:52:05.895Z,0
2023-03-19T21:57:28.601Z,0
2023-03-19T22:02:50.981Z,0
2023-03-19T22:08:19.565Z,0
2023-03-19T22:13:44.956Z,0
2023-03-19T22:19:07.435Z,0
2023-03-19T22:24:29.813Z,0
2023-03-19T22:29:52.523Z,0
2023-03-19T22:35:15.146Z,0
2023-03-19T22:40:38.040Z,0
2023-03-19T22:46:13.774Z,0
2023-03-19T22:51:45.636Z,0
2023-03-19T22:57:08.229Z,0
2023-03-19T23:02:30.959Z,0
2023-03-19T23:07:53.791Z,0
2023-03-19T23:13:16.124Z,0
2023-03-19T23:18:38.671Z,0
2023-03-19T23:24:02.481Z,0
2023-03-19T23:29:25.284Z,0
2023-03-19T23:35:10.752Z,0
2023-03-19T23:40:33.439Z,0
2023-03-19T23:45:55.735Z,0
2023-03-19T23:51:27.393Z,0
